createdAt,value
2024-01-11T00:01:25.481Z,-5.51
2024-01-11T00:03:52.110Z,-5.61
2024-01-11T00:06:19.135Z,-5.57
2024-01-11T00:08:46.313Z,-5.70
2024-01-11T00:11:14.272Z,-5.71
2024-01-11T00:13:41.934Z,-5.77
2024-01-11T00:16:08.672Z,-5.70
2024-01-11T00:18:35.667Z,-5.64
2024-01-11T00:21:02.984Z,-5.63
2024-01-11T00:23:31.966Z,-5.76
2024-01-11T00:26:00.956Z,-5.76
2024-01-11T00:28:27.992Z,-5.73
2024-01-11T00:30:55.885Z,-5.66
2024-01-11T00:33:22.732Z,-5.85
2024-01-11T00:35:59.984Z,-5.75
2024-01-11T00:38:26.681Z,-5.76
2024-01-11T00:40:53.503Z,-5.66
2024-01-11T00:43:20.413Z,-5.71
2024-01-11T00:45:49.491Z,-5.66
2024-01-11T00:48:16.411Z,-5.74
2024-01-11T00:51:32.964Z,-5.84
2024-01-11T00:54:00.814Z,-6.09
2024-01-11T00:56:28.537Z,-6.15
2024-01-11T00:59:26.307Z,-5.90
2024-01-11T01:01:53.149Z,-5.98
2024-01-11T01:04:25.085Z,-5.93
2024-01-11T01:06:52.152Z,-5.89
2024-01-11T01:09:29.187Z,-5.86
2024-01-11T01:12:01.291Z,-5.85
2024-01-11T01:14:28.426Z,-5.85
2024-01-11T01:17:04.361Z,-5.85
2024-01-11T01:19:31.386Z,-5.82
2024-01-11T01:22:02.422Z,-5.82
2024-01-11T01:24:29.529Z,-5.80
2024-01-11T01:26:56.321Z,-6.00
2024-01-11T01:29:33.456Z,-5.93
2024-01-11T01:32:00.583Z,-6.03
2024-01-11T01:34:27.531Z,-5.89
2024-01-11T01:36:54.432Z,-5.90
2024-01-11T01:39:22.620Z,-5.84
2024-01-11T01:41:51.183Z,-5.97
2024-01-11T01:44:24.227Z,-5.86
2024-01-11T01:46:52.947Z,-6.14
2024-01-11T01:49:23.751Z,-5.78
2024-01-11T01:51:54.030Z,-5.77
2024-01-11T01:54:24.248Z,-6.00
2024-01-11T01:56:51.807Z,-5.78
2024-01-11T01:59:20.117Z,-6.02
2024-01-11T02:01:49.008Z,-5.94
2024-01-11T02:04:16.730Z,-5.95
2024-01-11T02:07:31.438Z,-5.75
2024-01-11T02:09:59.475Z,-5.95
2024-01-11T02:12:27.231Z,-5.82
2024-01-11T02:14:55.008Z,-6.04
2024-01-11T02:17:22.478Z,-6.02
2024-01-11T02:19:49.489Z,-6.11
2024-01-11T02:22:36.824Z,-5.99
2024-01-11T02:25:03.565Z,-5.98
2024-01-11T02:27:30.377Z,-6.13
2024-01-11T02:29:57.289Z,-6.16
2024-01-11T02:32:24.615Z,-6.15
2024-01-11T02:34:51.947Z,-6.16
2024-01-11T02:37:20.030Z,-6.10
2024-01-11T02:39:47.046Z,-6.31
2024-01-11T02:42:17.097Z,-6.44
2024-01-11T02:44:43.965Z,-6.34
2024-01-11T02:47:17.990Z,-6.28
2024-01-11T02:49:44.795Z,-6.33
2024-01-11T02:52:11.536Z,-6.35
2024-01-11T02:54:38.350Z,-6.54
2024-01-11T02:57:05.721Z,-6.43
2024-01-11T02:59:33.112Z,-6.60
2024-01-11T03:02:05.582Z,-6.50
2024-01-11T03:04:32.504Z,-6.42
2024-01-11T03:07:10.511Z,-6.49
2024-01-11T03:09:38.307Z,-6.49
2024-01-11T03:12:05.603Z,-6.47
2024-01-11T03:14:32.504Z,-6.32
2024-01-11T03:16:59.742Z,-6.47
2024-01-11T03:19:26.762Z,-6.27
2024-01-11T03:21:53.932Z,-6.34
2024-01-11T03:24:21.285Z,-6.30
2024-01-11T03:26:49.929Z,-6.23
2024-01-11T03:29:19.215Z,-6.29
2024-01-11T03:31:59.456Z,-6.07
2024-01-11T03:34:26.389Z,-6.21
2024-01-11T03:36:53.403Z,-6.06
2024-01-11T03:39:20.742Z,-6.07
2024-01-11T03:41:49.147Z,-6.41
2024-01-11T03:44:23.894Z,-6.20
2024-01-11T03:46:50.858Z,-6.36
2024-01-11T03:49:17.826Z,-6.19
2024-01-11T03:51:46.800Z,-6.26
2024-01-11T03:54:13.846Z,-6.40
2024-01-11T03:56:47.893Z,-6.27
2024-01-11T03:59:17.103Z,-6.19
2024-01-11T04:01:51.242Z,-6.52
2024-01-11T04:04:18.206Z,-6.45
2024-01-11T04:06:46.400Z,-6.60
2024-01-11T04:09:13.301Z,-6.67
2024-01-11T04:11:40.340Z,-6.45
2024-01-11T04:14:07.575Z,-6.51
2024-01-11T04:16:42.257Z,-6.75
2024-01-11T04:19:09.758Z,-6.52
2024-01-11T04:21:49.248Z,-6.73
2024-01-11T04:24:16.093Z,-6.99
2024-01-11T04:26:55.051Z,-6.63
2024-01-11T04:29:32.832Z,-6.50
2024-01-11T04:32:02.079Z,-6.55
2024-01-11T04:34:29.850Z,-6.65
2024-01-11T04:36:56.732Z,-6.57
2024-01-11T04:39:24.455Z,-6.55
2024-01-11T04:41:51.253Z,-6.55
2024-01-11T04:44:17.892Z,-6.30
2024-01-11T04:46:44.930Z,-6.45
2024-01-11T04:49:11.842Z,-6.55
2024-01-11T04:51:38.742Z,-6.36
2024-01-11T04:54:05.558Z,-6.39
2024-01-11T04:56:41.831Z,-6.24
2024-01-11T04:59:08.658Z,-6.16
2024-01-11T05:01:35.720Z,-6.17
2024-01-11T05:04:02.846Z,-6.27
2024-01-11T05:06:31.975Z,-6.20
2024-01-11T05:08:58.758Z,-6.28
2024-01-11T05:11:29.185Z,-6.34
2024-01-11T05:13:56.178Z,-6.28
2024-01-11T05:16:27.981Z,-6.31
2024-01-11T05:18:56.228Z,-6.28
2024-01-11T05:21:27.671Z,-6.40
2024-01-11T05:23:54.436Z,-6.29
2024-01-11T05:26:29.087Z,-6.33
2024-01-11T05:28:55.750Z,-6.37
2024-01-11T05:31:23.767Z,-6.30
2024-01-11T05:33:50.831Z,-6.35
2024-01-11T05:36:18.055Z,-6.31
2024-01-11T05:38:46.603Z,-6.40
2024-01-11T05:41:21.580Z,-6.33
2024-01-11T05:43:48.325Z,-6.38
2024-01-11T05:46:15.054Z,-6.45
2024-01-11T05:48:42.040Z,-6.63
2024-01-11T05:51:10.638Z,-6.51
2024-01-11T05:53:44.678Z,-6.50
2024-01-11T05:56:12.270Z,-6.71
2024-01-11T05:58:39.759Z,-6.59
2024-01-11T06:01:09.056Z,-6.83
2024-01-11T06:03:36.354Z,-6.72
2024-01-11T06:06:05.556Z,-6.85
2024-01-11T06:08:32.695Z,-6.93
2024-01-11T06:11:00.173Z,-6.93
2024-01-11T06:13:27.582Z,-6.91
2024-01-11T06:15:54.263Z,-7.07
2024-01-11T06:18:21.027Z,-7.19
2024-01-11T06:21:39.153Z,-7.14
2024-01-11T06:24:05.943Z,-7.04
2024-01-11T06:26:38.749Z,-7.09
2024-01-11T06:29:05.506Z,-7.18
2024-01-11T06:31:34.131Z,-7.12
2024-01-11T06:34:01.117Z,-6.98
2024-01-11T06:36:31.710Z,-6.81
2024-01-11T06:38:58.446Z,-6.97
2024-01-11T06:41:35.609Z,-6.90
2024-01-11T06:44:03.321Z,-6.90
2024-01-11T06:46:37.178Z,-6.92
2024-01-11T06:49:04.942Z,-6.94
2024-01-11T06:51:32.959Z,-6.93
2024-01-11T06:54:01.335Z,-6.80
2024-01-11T06:56:29.029Z,-7.21
2024-01-11T06:59:01.922Z,-6.94
2024-01-11T07:01:28.687Z,-6.94
2024-01-11T07:04:06.788Z,-6.88
2024-01-11T07:06:33.568Z,-6.83
2024-01-11T07:09:01.036Z,-6.89
2024-01-11T07:11:28.024Z,-6.92
2024-01-11T07:13:55.351Z,-6.89
2024-01-11T07:16:22.798Z,-6.95
2024-01-11T07:18:49.712Z,-7.18
2024-01-11T07:21:33.233Z,-6.85
2024-01-11T07:24:07.513Z,-7.05
2024-01-11T07:26:34.290Z,-6.85
2024-01-11T07:29:01.658Z,-6.58
2024-01-11T07:31:28.560Z,-5.92
2024-01-11T07:33:55.352Z,-5.88
2024-01-11T07:36:22.114Z,-5.57
2024-01-11T07:38:49.180Z,-5.26
2024-01-11T07:41:24.161Z,-4.79
2024-01-11T07:43:54.707Z,-4.51
2024-01-11T07:46:32.353Z,-4.06
2024-01-11T07:49:06.566Z,-4.23
2024-01-11T07:51:34.543Z,-3.88
2024-01-11T07:54:01.673Z,-3.63
2024-01-11T07:56:34.855Z,-3.49
2024-01-11T07:59:03.712Z,-2.97
2024-01-11T08:01:30.475Z,-2.73
2024-01-11T08:03:57.197Z,-2.29
2024-01-11T08:06:26.133Z,-2.18
2024-01-11T08:08:53.659Z,-1.91
2024-01-11T08:11:21.280Z,-1.76
2024-01-11T08:13:48.285Z,-1.50
2024-01-11T08:16:19.491Z,-1.41
2024-01-11T08:18:47.249Z,-1.22
2024-01-11T08:21:14.441Z,-1.15
2024-01-11T08:23:47.307Z,-1.09
2024-01-11T08:26:27.848Z,-0.74
2024-01-11T08:28:55.367Z,-0.52
2024-01-11T08:31:22.788Z,-0.45
2024-01-11T08:33:49.868Z,-0.40
2024-01-11T08:36:23.188Z,-0.10
2024-01-11T08:38:56.886Z,0.02
2024-01-11T08:41:23.994Z,-0.14
2024-01-11T08:44:03.979Z,0.17
2024-01-11T08:46:38.163Z,0.35
2024-01-11T08:49:05.841Z,0.63
2024-01-11T08:51:37.405Z,0.51
2024-01-11T08:54:10.911Z,0.77
2024-01-11T08:56:49.072Z,0.78
2024-01-11T08:59:19.375Z,1.25
2024-01-11T09:01:53.570Z,1.55
2024-01-11T09:04:31.058Z,1.72
2024-01-11T09:07:05.663Z,1.83
2024-01-11T09:09:43.856Z,2.00
2024-01-11T09:12:17.588Z,2.34
2024-01-11T09:15:08.064Z,2.46
2024-01-11T09:17:36.332Z,2.16
2024-01-11T09:20:03.285Z,2.16
2024-01-11T09:22:31.077Z,2.43
2024-01-11T09:24:59.056Z,2.59
2024-01-11T09:27:25.889Z,2.65
2024-01-11T09:29:57.392Z,2.95
2024-01-11T09:32:24.657Z,2.96
2024-01-11T09:34:59.083Z,3.37
2024-01-11T09:37:25.964Z,2.50
2024-01-11T09:40:17.212Z,3.30
2024-01-11T09:42:44.533Z,2.90
2024-01-11T09:45:17.303Z,3.28
2024-01-11T09:47:51.767Z,2.85
2024-01-11T09:50:19.595Z,3.00
2024-01-11T09:52:50.910Z,3.00
2024-01-11T09:55:18.958Z,2.92
2024-01-11T09:57:52.813Z,2.79
2024-01-11T10:00:23.266Z,2.18
2024-01-11T10:02:53.290Z,2.72
2024-01-11T10:05:22.074Z,3.15
2024-01-11T10:07:58.836Z,2.90
2024-01-11T10:10:52.478Z,3.28
2024-01-11T10:13:19.418Z,3.49
2024-01-11T10:15:46.939Z,3.02
2024-01-11T10:18:14.193Z,3.00
2024-01-11T10:20:41.176Z,3.21
2024-01-11T10:23:08.415Z,3.88
2024-01-11T10:25:35.172Z,3.83
2024-01-11T10:28:15.819Z,2.92
2024-01-11T10:30:42.842Z,3.16
2024-01-11T10:33:10.972Z,3.39
2024-01-11T10:35:39.936Z,3.72
2024-01-11T10:38:13.056Z,3.66
2024-01-11T10:40:42.410Z,3.70
2024-01-11T10:43:16.785Z,3.76
2024-01-11T10:45:45.879Z,3.11
2024-01-11T10:48:31.721Z,3.86
2024-01-11T10:51:03.585Z,3.64
2024-01-11T10:53:36.835Z,3.66
2024-01-11T10:56:06.722Z,3.38
2024-01-11T10:58:34.363Z,3.91
2024-01-11T11:01:03.848Z,3.81
2024-01-11T11:03:33.036Z,3.33
2024-01-11T11:06:00.281Z,3.72
2024-01-11T11:08:28.230Z,3.62
2024-01-11T11:11:23.082Z,3.31
2024-01-11T11:13:50.960Z,3.31
2024-01-11T11:16:17.719Z,3.47
2024-01-11T11:18:44.800Z,3.56
2024-01-11T11:21:33.596Z,3.79
2024-01-11T11:24:00.332Z,3.30
2024-01-11T11:26:28.850Z,3.54
2024-01-11T11:28:55.623Z,3.93
2024-01-11T11:32:07.697Z,3.86
2024-01-11T11:34:46.603Z,3.48
2024-01-11T11:37:25.296Z,3.46
2024-01-11T11:39:52.043Z,3.67
2024-01-11T11:42:19.520Z,3.57
2024-01-11T11:44:56.272Z,3.53
2024-01-11T11:47:25.302Z,3.46
2024-01-11T11:50:09.031Z,3.84
2024-01-11T11:52:37.615Z,4.04
2024-01-11T11:55:06.194Z,3.79
2024-01-11T11:57:36.728Z,3.78
2024-01-11T12:00:07.638Z,3.60
2024-01-11T12:02:37.728Z,3.85
2024-01-11T12:05:07.685Z,3.32
2024-01-11T12:07:38.709Z,3.22
2024-01-11T12:10:06.366Z,3.49
2024-01-11T12:12:35.162Z,3.35
2024-01-11T12:15:02.010Z,3.41
2024-01-11T12:17:29.262Z,3.35
2024-01-11T12:19:58.350Z,3.53
2024-01-11T12:22:26.996Z,3.24
2024-01-11T12:24:58.061Z,3.52
2024-01-11T12:27:25.036Z,3.35
2024-01-11T12:30:02.603Z,3.27
2024-01-11T12:32:33.782Z,2.95
2024-01-11T12:35:35.776Z,3.32
2024-01-11T12:38:07.268Z,2.78
2024-01-11T12:40:36.310Z,2.95
2024-01-11T12:43:12.614Z,2.89
2024-01-11T12:45:40.840Z,3.23
2024-01-11T12:48:11.181Z,3.15
2024-01-11T12:50:44.080Z,3.02
2024-01-11T12:53:21.456Z,3.46
2024-01-11T12:55:55.303Z,3.04
2024-01-11T12:58:28.225Z,2.76
2024-01-11T13:00:57.469Z,2.78
2024-01-11T13:03:28.650Z,2.76
2024-01-11T13:05:55.800Z,2.73
2024-01-11T13:08:38.878Z,3.12
2024-01-11T13:11:09.451Z,3.23
2024-01-11T13:13:37.129Z,3.49
2024-01-11T13:16:15.958Z,3.60
2024-01-11T13:18:43.215Z,3.24
2024-01-11T13:21:18.159Z,2.79
2024-01-11T13:23:45.256Z,2.95
2024-01-11T13:26:17.312Z,2.94
2024-01-11T13:28:44.287Z,3.08
2024-01-11T13:31:12.415Z,3.02
2024-01-11T13:33:40.527Z,3.11
2024-01-11T13:36:16.426Z,3.04
2024-01-11T13:38:50.673Z,3.31
2024-01-11T13:41:18.466Z,3.10
2024-01-11T13:43:45.309Z,3.23
2024-01-11T13:46:20.991Z,3.37
2024-01-11T13:48:49.419Z,3.36
2024-01-11T13:51:17.342Z,3.12
2024-01-11T13:53:50.345Z,3.22
2024-01-11T13:56:19.983Z,3.01
2024-01-11T13:58:51.222Z,3.14
2024-01-11T14:01:17.997Z,3.29
2024-01-11T14:03:44.667Z,3.15
2024-01-11T14:06:11.876Z,2.99
2024-01-11T14:08:38.808Z,3.00
2024-01-11T14:11:07.914Z,3.07
2024-01-11T14:13:34.699Z,2.78
2024-01-11T14:16:02.905Z,3.15
2024-01-11T14:18:30.006Z,2.77
2024-01-11T14:20:57.059Z,2.91
2024-01-11T14:23:23.869Z,3.00
2024-01-11T14:25:56.705Z,3.12
2024-01-11T14:28:24.708Z,2.98
2024-01-11T14:31:05.710Z,3.08
2024-01-11T14:33:41.376Z,3.01
2024-01-11T14:36:08.635Z,2.91
2024-01-11T14:38:40.270Z,2.71
2024-01-11T14:41:10.627Z,2.78
2024-01-11T14:43:37.746Z,2.53
2024-01-11T14:46:05.053Z,2.70
2024-01-11T14:48:41.374Z,2.72
2024-01-11T14:51:11.684Z,2.41
2024-01-11T14:53:44.624Z,2.31
2024-01-11T14:56:14.617Z,2.30
2024-01-11T14:58:41.384Z,2.01
2024-01-11T15:01:10.891Z,2.08
2024-01-11T15:03:44.695Z,1.94
2024-01-11T15:06:13.723Z,1.67
2024-01-11T15:08:44.499Z,1.57
2024-01-11T15:11:23.654Z,1.65
2024-01-11T15:13:53.501Z,1.69
2024-01-11T15:16:27.445Z,1.55
2024-01-11T15:18:54.227Z,1.49
2024-01-11T15:21:21.227Z,1.21
2024-01-11T15:23:47.933Z,1.24
2024-01-11T15:26:14.886Z,1.17
2024-01-11T15:28:51.570Z,1.17
2024-01-11T15:31:19.360Z,0.86
2024-01-11T15:33:48.270Z,0.65
2024-01-11T15:36:15.597Z,0.78
2024-01-11T15:38:43.419Z,0.78
2024-01-11T15:41:20.504Z,0.76
2024-01-11T15:43:58.138Z,0.53
2024-01-11T15:46:27.018Z,0.50
2024-01-11T15:48:53.733Z,0.46
2024-01-11T15:51:28.728Z,0.55
2024-01-11T15:53:57.411Z,0.43
2024-01-11T15:56:24.164Z,0.36
2024-01-11T15:58:51.257Z,0.10
2024-01-11T16:01:18.049Z,0.25
2024-01-11T16:03:49.431Z,0.19
2024-01-11T16:06:16.258Z,0.30
2024-01-11T16:08:43.094Z,0.17
2024-01-11T16:11:10.620Z,0.19
2024-01-11T16:13:37.759Z,0.13
2024-01-11T16:16:05.933Z,0.18
2024-01-11T16:18:35.973Z,0.21
2024-01-11T16:21:07.136Z,0.22
2024-01-11T16:23:34.892Z,0.20
2024-01-11T16:26:01.833Z,0.11
2024-01-11T16:28:28.696Z,-0.15
2024-01-11T16:30:55.601Z,-0.07
2024-01-11T16:33:22.722Z,-0.07
2024-01-11T16:35:55.923Z,-0.14
2024-01-11T16:38:26.107Z,-0.19
2024-01-11T16:40:55.890Z,-0.19
2024-01-11T16:43:23.371Z,-0.06
2024-01-11T16:45:51.899Z,-0.24
2024-01-11T16:48:19.236Z,-0.20
2024-01-11T16:51:03.615Z,-0.34
2024-01-11T16:53:31.459Z,-0.29
2024-01-11T16:55:59.676Z,-0.47
2024-01-11T16:58:31.797Z,-0.33
2024-01-11T17:00:58.547Z,-0.40
2024-01-11T17:03:26.352Z,-0.41
2024-01-11T17:05:52.971Z,-0.51
2024-01-11T17:08:19.721Z,-0.42
2024-01-11T17:10:46.616Z,-0.48
2024-01-11T17:13:13.393Z,-0.47
2024-01-11T17:15:51.354Z,-0.51
2024-01-11T17:22:51.441Z,-0.77
2024-01-11T17:25:18.465Z,-0.85
2024-01-11T17:27:45.472Z,-0.95
2024-01-11T17:30:21.874Z,-0.99
2024-01-11T17:33:01.000Z,-0.97
2024-01-11T17:35:28.213Z,-1.01
2024-01-11T17:37:54.865Z,-1.07
2024-01-11T17:40:22.118Z,-1.06
2024-01-11T17:42:48.958Z,-1.06
2024-01-11T17:45:15.942Z,-1.13
2024-01-11T17:47:45.787Z,-1.27
2024-01-11T17:50:12.983Z,-1.56
2024-01-11T17:52:40.012Z,-1.33
2024-01-11T17:55:07.213Z,-1.53
2024-01-11T17:57:33.824Z,-1.35
2024-01-11T18:00:04.035Z,-1.42
2024-01-11T18:02:31.456Z,-1.64
2024-01-11T18:04:58.494Z,-1.64
2024-01-11T18:07:36.892Z,-1.60
2024-01-11T18:10:05.521Z,-1.46
2024-01-11T18:12:33.085Z,-1.44
2024-01-11T18:15:02.090Z,-1.66
2024-01-11T18:17:29.265Z,-1.61
2024-01-11T18:19:56.290Z,-1.41
2024-01-11T18:22:28.518Z,-1.72
2024-01-11T18:24:57.801Z,-1.59
2024-01-11T18:27:26.880Z,-1.74
2024-01-11T18:29:55.886Z,-1.80
2024-01-11T18:32:23.373Z,-1.95
2024-01-11T18:34:50.268Z,-1.74
2024-01-11T18:37:17.411Z,-1.73
2024-01-11T18:39:47.775Z,-1.87
2024-01-11T18:42:14.885Z,-2.00
2024-01-11T18:44:41.979Z,-2.18
2024-01-11T18:47:10.840Z,-1.97
2024-01-11T18:49:42.981Z,-2.13
2024-01-11T18:52:09.973Z,-2.15
2024-01-11T18:54:37.001Z,-2.23
2024-01-11T18:57:06.264Z,-2.30
2024-01-11T18:59:50.923Z,-2.44
2024-01-11T19:02:18.258Z,-2.18
2024-01-11T19:04:47.388Z,-2.08
2024-01-11T19:07:14.165Z,-2.18
2024-01-11T19:09:41.823Z,-2.24
2024-01-11T19:12:15.588Z,-2.33
2024-01-11T19:22:57.004Z,-2.23
2024-01-11T19:42:40.618Z,-2.38
2024-01-11T19:45:08.150Z,-2.57
2024-01-11T19:47:38.696Z,-2.85
2024-01-11T19:50:17.200Z,-2.88
2024-01-11T19:53:11.160Z,-2.84
2024-01-11T19:55:48.109Z,-2.82
2024-01-11T19:58:26.332Z,-3.00
2024-01-11T20:00:53.307Z,-2.96
2024-01-11T20:03:33.853Z,-3.06
2024-01-11T20:06:00.752Z,-2.87
2024-01-11T20:08:36.224Z,-3.09
2024-01-11T20:11:03.581Z,-3.01
2024-01-11T20:13:30.392Z,-3.17
2024-01-11T20:15:57.148Z,-3.13
2024-01-11T20:18:28.678Z,-3.06
2024-01-11T20:20:57.034Z,-3.28
2024-01-11T20:23:23.902Z,-3.05
2024-01-11T20:25:51.289Z,-3.27
2024-01-11T20:28:21.564Z,-3.20
2024-01-11T20:30:48.962Z,-3.21
2024-01-11T20:33:16.390Z,-3.43
2024-01-11T20:35:43.374Z,-3.21
2024-01-11T20:38:12.397Z,-3.15
2024-01-11T20:40:39.106Z,-3.18
2024-01-11T20:43:07.549Z,-3.35
2024-01-11T20:45:34.327Z,-3.21
2024-01-11T20:48:01.692Z,-3.25
2024-01-11T20:50:37.485Z,-3.38
2024-01-11T20:53:19.444Z,-3.51
2024-01-11T20:55:46.040Z,-3.64
2024-01-11T20:58:12.767Z,-3.68
2024-01-11T21:00:39.976Z,-3.70
2024-01-11T21:03:09.210Z,-3.65
2024-01-11T21:05:38.232Z,-3.76
2024-01-11T21:08:05.352Z,-3.72
2024-01-11T21:10:32.170Z,-3.67
2024-01-11T21:12:59.093Z,-3.82
2024-01-11T21:15:25.711Z,-3.87
2024-01-11T21:17:52.665Z,-3.73
2024-01-11T21:20:19.508Z,-3.82
2024-01-11T21:22:46.436Z,-3.85
2024-01-11T21:25:14.499Z,-4.04
2024-01-11T21:27:41.449Z,-4.05
2024-01-11T21:30:11.034Z,-3.94
2024-01-11T21:32:38.494Z,-4.06
2024-01-11T21:35:05.916Z,-3.94
2024-01-11T21:37:32.640Z,-4.04
2024-01-11T21:40:08.369Z,-4.22
2024-01-11T21:42:35.253Z,-4.07
2024-01-11T21:45:03.178Z,-4.02
2024-01-11T21:47:30.090Z,-4.29
2024-01-11T21:49:57.036Z,-4.02
2024-01-11T21:52:27.375Z,-4.35
2024-01-11T21:54:54.525Z,-4.29
2024-01-11T21:57:21.198Z,-4.26
2024-01-11T21:59:48.215Z,-4.38
2024-01-11T22:02:15.018Z,-4.20
2024-01-11T22:04:41.945Z,-4.28
2024-01-11T22:07:11.459Z,-4.37
2024-01-11T22:09:39.710Z,-4.37
2024-01-11T22:12:06.813Z,-4.57
2024-01-11T22:14:33.643Z,-4.40
2024-01-11T22:17:00.578Z,-4.58
2024-01-11T22:19:36.408Z,-4.55
2024-01-11T22:22:05.569Z,-4.38
2024-01-11T22:24:32.525Z,-4.48
2024-01-11T22:26:59.279Z,-4.50
2024-01-11T22:29:25.974Z,-4.43
2024-01-11T22:31:53.126Z,-4.33
2024-01-11T22:34:20.058Z,-4.32
2024-01-11T22:36:48.063Z,-4.28
2024-01-11T22:39:14.981Z,-4.31
2024-01-11T22:41:41.663Z,-4.41
2024-01-11T22:44:08.366Z,-4.28
2024-01-11T22:46:35.571Z,-4.51
2024-01-11T22:49:05.960Z,-4.65
2024-01-11T22:51:33.172Z,-4.51
2024-01-11T22:53:59.986Z,-4.63
2024-01-11T22:56:31.118Z,-4.54
2024-01-11T22:58:57.721Z,-4.58
2024-01-11T23:01:24.371Z,-4.59
2024-01-11T23:03:51.289Z,-4.67
2024-01-11T23:06:27.521Z,-4.56
2024-01-11T23:08:54.379Z,-4.44
2024-01-11T23:11:21.182Z,-4.41
2024-01-11T23:13:48.162Z,-4.28
2024-01-11T23:16:14.778Z,-4.45
2024-01-11T23:18:44.174Z,-4.42
2024-01-11T23:21:17.424Z,-4.40
2024-01-11T23:23:44.225Z,-4.39
2024-01-11T23:26:11.202Z,-4.55
2024-01-11T23:28:37.928Z,-4.56
2024-01-11T23:31:05.853Z,-4.61
2024-01-11T23:33:33.919Z,-4.63
2024-01-11T23:36:02.962Z,-4.73
2024-01-11T23:38:30.156Z,-4.78
2024-01-11T23:40:56.983Z,-4.92
2024-01-11T23:43:26.601Z,-4.92
2024-01-11T23:45:53.281Z,-4.80
2024-01-11T23:48:20.264Z,-4.75
2024-01-11T23:50:47.356Z,-4.70
2024-01-11T23:53:14.096Z,-4.85
2024-01-11T23:55:40.951Z,-5.12
2024-01-11T23:58:07.894Z,-5.12
